createdAt,value
2022-10-29T00:00:24.478Z,10.90
2022-10-29T00:02:57.499Z,10.80
2022-10-29T00:05:28.496Z,10.30
2022-10-29T00:07:59.587Z,10.00
2022-10-29T00:10:31.067Z,11.20
2022-10-29T00:13:04.741Z,10.80
2022-10-29T00:15:35.581Z,10.40
2022-10-29T00:18:06.679Z,10.60
2022-10-29T00:20:37.577Z,9.90
2022-10-29T00:23:09.034Z,10.20
2022-10-29T00:25:40.100Z,10.00
2022-10-29T00:28:10.929Z,10.30
2022-10-29T00:30:41.867Z,9.90
2022-10-29T00:33:13.073Z,10.40
2022-10-29T00:35:43.949Z,11.30
2022-10-29T00:38:14.780Z,9.90
2022-10-29T00:40:45.593Z,9.70
2022-10-29T00:43:18.097Z,10.10
2022-10-29T00:45:53.644Z,9.70
2022-10-29T00:48:26.933Z,10.00
2022-10-29T00:50:59.200Z,9.10
2022-10-29T00:53:33.569Z,9.40
2022-10-29T00:56:05.530Z,9.50
2022-10-29T00:58:36.545Z,12.90
2022-10-29T01:01:07.715Z,9.90
2022-10-29T01:03:39.435Z,9.40
2022-10-29T01:06:11.079Z,10.10
2022-10-29T01:08:42.007Z,9.50
2022-10-29T01:11:23.109Z,9.70
2022-10-29T01:14:07.578Z,9.20
2022-10-29T01:16:48.857Z,8.80
2022-10-29T01:19:37.589Z,9.90
2022-10-29T01:22:15.378Z,8.20
2022-10-29T01:25:22.288Z,9.40
2022-10-29T01:28:02.376Z,7.90
2022-10-29T01:31:12.171Z,9.00
2022-10-29T01:33:53.701Z,9.40
2022-10-29T01:36:32.891Z,10.30
2022-10-29T01:39:11.564Z,8.50
2022-10-29T01:41:52.726Z,8.40
2022-10-29T01:44:34.936Z,8.70
2022-10-29T01:47:11.426Z,8.90
2022-10-29T01:49:45.941Z,9.40
2022-10-29T01:52:19.077Z,8.70
2022-10-29T01:54:50.474Z,8.40
2022-10-29T01:57:33.706Z,8.80
2022-10-29T02:00:08.081Z,8.80
2022-10-29T02:03:00.069Z,9.00
2022-10-29T02:05:37.514Z,8.80
2022-10-29T02:08:19.545Z,7.90
2022-10-29T02:10:55.791Z,9.70
2022-10-29T02:13:39.190Z,9.30
2022-10-29T02:16:12.759Z,8.60
2022-10-29T02:18:46.111Z,8.20
2022-10-29T02:21:22.695Z,8.10
2022-10-29T02:23:53.827Z,8.40
2022-10-29T02:26:24.752Z,8.30
2022-10-29T02:28:55.583Z,8.20
2022-10-29T02:31:26.518Z,8.50
2022-10-29T02:33:57.465Z,8.50
2022-10-29T02:36:28.299Z,8.70
2022-10-29T02:38:59.144Z,8.00
2022-10-29T02:41:30.178Z,8.40
2022-10-29T02:44:01.074Z,8.50
2022-10-29T02:46:31.904Z,7.90
2022-10-29T02:49:02.677Z,9.10
2022-10-29T02:51:33.684Z,8.80
2022-10-29T02:54:04.513Z,8.10
2022-10-29T02:56:35.417Z,7.90
2022-10-29T02:59:09.192Z,9.30
2022-10-29T03:01:42.650Z,8.60
2022-10-29T03:04:14.648Z,8.70
2022-10-29T03:06:45.689Z,8.80
2022-10-29T03:09:16.489Z,8.00
2022-10-29T03:11:48.081Z,7.60
2022-10-29T03:14:19.214Z,9.00
2022-10-29T03:16:50.042Z,8.40
2022-10-29T03:19:20.877Z,8.40
2022-10-29T03:21:51.751Z,8.10
2022-10-29T03:24:22.610Z,8.90
2022-10-29T03:26:53.582Z,8.80
2022-10-29T03:29:25.010Z,7.90
2022-10-29T03:31:55.879Z,8.40
2022-10-29T03:34:26.750Z,8.10
2022-10-29T03:36:57.575Z,9.40
2022-10-29T03:39:28.395Z,8.60
2022-10-29T03:41:59.215Z,7.70
2022-10-29T03:44:29.963Z,8.70
2022-10-29T03:47:00.792Z,8.30
2022-10-29T03:49:31.638Z,8.10
2022-10-29T03:52:02.504Z,7.70
2022-10-29T03:54:33.404Z,8.10
2022-10-29T03:57:04.358Z,7.80
2022-10-29T03:59:35.505Z,8.20
2022-10-29T04:02:07.100Z,8.20
2022-10-29T04:04:38.156Z,8.20
2022-10-29T04:07:09.137Z,9.40
2022-10-29T04:09:40.028Z,10.60
2022-10-29T04:12:12.075Z,8.30
2022-10-29T04:14:45.563Z,7.40
2022-10-29T04:17:16.956Z,7.80
2022-10-29T04:19:47.858Z,7.30
2022-10-29T04:30:53.141Z,7.40
2022-10-29T04:33:24.059Z,7.90
2022-10-29T04:35:57.796Z,7.60
2022-10-29T04:38:28.736Z,9.70
2022-10-29T04:41:02.144Z,7.80
2022-10-29T04:43:33.674Z,7.70
2022-10-29T04:46:04.651Z,7.30
2022-10-29T04:48:35.754Z,7.70
2022-10-29T04:51:07.526Z,7.30
2022-10-29T04:53:40.947Z,7.40
2022-10-29T04:56:11.845Z,7.20
2022-10-29T04:58:42.720Z,8.00
2022-10-29T05:01:13.742Z,7.40
2022-10-29T05:03:44.871Z,7.10
2022-10-29T05:06:15.857Z,7.60
2022-10-29T05:08:46.768Z,8.00
2022-10-29T05:11:17.619Z,7.90
2022-10-29T05:13:48.488Z,7.70
2022-10-29T05:16:19.332Z,7.30
2022-10-29T05:18:50.276Z,7.30
2022-10-29T05:21:21.059Z,7.20
2022-10-29T05:23:52.239Z,6.90
2022-10-29T05:26:23.356Z,8.30
2022-10-29T05:28:54.553Z,8.00
2022-10-29T05:31:25.427Z,7.50
2022-10-29T05:33:56.287Z,6.90
2022-10-29T05:36:27.110Z,7.20
2022-10-29T05:38:58.237Z,6.70
2022-10-29T05:41:29.005Z,7.30
2022-10-29T05:44:00.148Z,7.00
2022-10-29T05:46:31.008Z,8.80
2022-10-29T05:49:02.076Z,7.20
2022-10-29T05:51:32.963Z,7.20
2022-10-29T05:54:04.105Z,6.70
2022-10-29T05:56:34.968Z,8.00
2022-10-29T05:59:06.002Z,9.20
2022-10-29T06:01:36.997Z,7.20
2022-10-29T06:04:08.187Z,8.00
2022-10-29T06:06:39.189Z,6.90
2022-10-29T06:09:10.621Z,6.30
2022-10-29T06:11:41.487Z,7.10
2022-10-29T06:14:12.477Z,22.20
2022-10-29T06:16:43.943Z,22.80
2022-10-29T06:19:14.866Z,7.40
2022-10-29T06:21:45.742Z,6.80
2022-10-29T06:24:16.545Z,7.30
2022-10-29T06:26:47.476Z,7.30
2022-10-29T06:29:18.371Z,8.20
2022-10-29T06:31:49.194Z,7.40
2022-10-29T06:34:20.089Z,7.80
2022-10-29T06:36:50.955Z,7.00
2022-10-29T06:39:22.190Z,8.20
2022-10-29T06:41:53.123Z,7.50
2022-10-29T06:44:24.246Z,8.20
2022-10-29T06:46:58.480Z,6.60
2022-10-29T06:49:29.403Z,7.60
2022-10-29T06:52:00.485Z,7.50
2022-10-29T06:54:31.548Z,7.70
2022-10-29T06:57:02.441Z,7.10
2022-10-29T06:59:33.323Z,6.90
2022-10-29T07:02:04.345Z,6.40
2022-10-29T07:04:36.532Z,6.50
2022-10-29T07:07:10.616Z,6.80
2022-10-29T07:09:42.968Z,6.10
2022-10-29T07:12:18.984Z,5.60
2022-10-29T07:14:51.686Z,6.50
2022-10-29T07:17:26.629Z,5.80
2022-10-29T07:19:57.535Z,6.80
2022-10-29T07:22:34.630Z,6.10
2022-10-29T07:25:07.997Z,6.30
2022-10-29T07:27:43.373Z,5.90
2022-10-29T07:30:14.936Z,6.00
2022-10-29T07:32:47.265Z,6.70
2022-10-29T07:35:18.794Z,6.20
2022-10-29T07:37:52.108Z,6.20
2022-10-29T07:40:22.984Z,6.20
2022-10-29T07:42:57.700Z,6.20
2022-10-29T07:45:30.219Z,5.50
2022-10-29T07:48:08.958Z,6.50
2022-10-29T07:50:40.489Z,5.80
2022-10-29T07:53:12.278Z,6.20
2022-10-29T07:55:43.364Z,7.50
2022-10-29T07:58:19.892Z,6.60
2022-10-29T08:00:52.705Z,5.60
2022-10-29T08:03:24.637Z,6.60
2022-10-29T08:06:03.705Z,5.60
2022-10-29T08:08:35.202Z,6.30
2022-10-29T08:11:08.302Z,6.00
2022-10-29T08:13:40.532Z,6.90
2022-10-29T08:16:12.028Z,6.10
2022-10-29T08:18:50.710Z,6.90
2022-10-29T08:21:46.179Z,6.20
2022-10-29T08:24:20.312Z,6.50
2022-10-29T08:26:52.726Z,6.30
2022-10-29T08:29:27.087Z,6.10
2022-10-29T08:31:58.405Z,6.00
2022-10-29T08:34:29.496Z,6.70
2022-10-29T08:37:01.773Z,6.80
2022-10-29T08:39:35.131Z,6.20
2022-10-29T08:42:19.629Z,6.20
2022-10-29T08:45:08.304Z,6.60
2022-10-29T08:47:57.322Z,6.60
2022-10-29T08:50:41.712Z,6.90
2022-10-29T08:53:25.153Z,6.80
2022-10-29T08:56:00.183Z,5.70
2022-10-29T08:58:39.632Z,7.00
2022-10-29T09:01:13.795Z,6.90
2022-10-29T09:03:45.074Z,6.20
2022-10-29T09:06:21.888Z,6.30
2022-10-29T09:09:11.638Z,8.10
2022-10-29T09:12:01.126Z,7.00
2022-10-29T09:15:00.511Z,7.40
2022-10-29T09:17:37.030Z,8.10
2022-10-29T09:20:29.986Z,8.60
2022-10-29T09:23:12.311Z,8.30
2022-10-29T09:25:51.224Z,7.70
2022-10-29T09:28:34.825Z,7.80
2022-10-29T09:31:14.068Z,7.90
2022-10-29T09:33:47.627Z,8.40
2022-10-29T09:36:22.477Z,8.40
2022-10-29T09:38:59.379Z,7.50
2022-10-29T09:41:34.478Z,8.50
2022-10-29T09:44:15.977Z,8.60
2022-10-29T09:46:54.954Z,7.70
2022-10-29T09:49:40.258Z,7.70
2022-10-29T09:54:43.516Z,8.30
2022-10-29T09:57:20.845Z,9.90
2022-10-29T09:59:56.934Z,8.10
2022-10-29T10:02:34.671Z,8.20
2022-10-29T10:05:09.821Z,9.00
2022-10-29T10:07:41.157Z,8.30
2022-10-29T10:10:23.491Z,9.60
2022-10-29T10:13:05.286Z,9.40
2022-10-29T10:15:38.465Z,10.70
2022-10-29T10:18:18.774Z,9.90
2022-10-29T10:21:03.465Z,10.90
2022-10-29T10:23:44.642Z,10.80
2022-10-29T10:26:34.043Z,9.80
2022-10-29T10:29:16.264Z,10.60
2022-10-29T10:31:49.742Z,12.60
2022-10-29T10:34:23.159Z,11.80
2022-10-29T10:36:56.815Z,13.20
2022-10-29T10:39:36.899Z,13.00
2022-10-29T10:42:17.332Z,11.80
2022-10-29T10:44:52.411Z,13.30
2022-10-29T10:47:28.246Z,11.70
2022-10-29T10:50:13.310Z,12.30
2022-10-29T10:52:44.547Z,11.80
2022-10-29T10:55:25.751Z,11.70
2022-10-29T10:58:04.601Z,10.60
2022-10-29T11:00:41.696Z,11.80
2022-10-29T11:03:19.569Z,10.30
2022-10-29T11:06:00.793Z,9.60
2022-10-29T11:08:36.074Z,10.40
2022-10-29T11:11:11.726Z,10.60
2022-10-29T11:13:43.546Z,10.90
2022-10-29T11:16:21.368Z,10.10
2022-10-29T11:18:58.453Z,9.90
2022-10-29T11:21:39.237Z,9.50
2022-10-29T11:24:18.088Z,10.90
2022-10-29T11:26:54.301Z,9.80
2022-10-29T11:29:34.022Z,10.40
2022-10-29T11:32:11.612Z,9.80
2022-10-29T11:34:49.570Z,9.50
2022-10-29T11:37:26.873Z,9.40
2022-10-29T11:40:03.881Z,9.80
2022-10-29T11:42:36.430Z,9.50
2022-10-29T11:45:12.074Z,9.90
2022-10-29T11:47:58.269Z,10.20
2022-10-29T11:50:39.909Z,9.60
2022-10-29T11:53:22.880Z,9.60
2022-10-29T11:56:03.779Z,8.80
2022-10-29T11:58:40.844Z,9.10
2022-10-29T12:01:22.540Z,9.30
2022-10-29T12:04:11.434Z,8.90
2022-10-29T12:06:55.074Z,7.40
2022-10-29T12:09:40.588Z,7.90
2022-10-29T12:12:18.520Z,7.10
2022-10-29T12:14:57.856Z,8.10
2022-10-29T12:17:35.756Z,7.60
2022-10-29T12:20:22.050Z,7.40
2022-10-29T12:23:05.895Z,7.40
2022-10-29T12:25:48.364Z,7.30
2022-10-29T12:28:30.220Z,7.70
2022-10-29T12:31:14.976Z,7.60
2022-10-29T12:33:53.267Z,7.90
2022-10-29T12:36:31.639Z,7.40
2022-10-29T12:39:04.280Z,7.90
2022-10-29T12:41:40.203Z,7.30
2022-10-29T12:44:19.877Z,9.10
2022-10-29T12:46:59.075Z,9.10
2022-10-29T12:49:47.050Z,7.80
2022-10-29T12:52:22.315Z,8.50
2022-10-29T12:54:55.660Z,9.40
2022-10-29T12:57:35.182Z,7.80
2022-10-29T13:00:45.881Z,7.80
2022-10-29T13:04:00.978Z,7.10
2022-10-29T13:06:57.794Z,6.50
2022-10-29T13:09:30.301Z,6.40
2022-10-29T13:12:03.468Z,7.10
2022-10-29T13:14:42.847Z,6.50
2022-10-29T13:17:31.299Z,5.60
2022-10-29T13:20:05.960Z,6.80
2022-10-29T13:22:54.422Z,6.10
2022-10-29T13:25:51.209Z,5.30
2022-10-29T13:28:52.823Z,6.90
2022-10-29T13:31:50.687Z,5.40
2022-10-29T13:34:56.172Z,5.10
2022-10-29T13:37:54.625Z,5.90
2022-10-29T13:40:56.483Z,4.00
2022-10-29T13:43:28.402Z,5.20
2022-10-29T13:46:42.577Z,5.40
2022-10-29T13:49:20.079Z,6.10
2022-10-29T13:52:05.461Z,5.80
2022-10-29T13:54:43.176Z,5.20
2022-10-29T13:57:23.942Z,5.00
2022-10-29T14:00:00.484Z,5.40
2022-10-29T14:02:49.263Z,5.00
2022-10-29T14:05:24.571Z,5.10
2022-10-29T14:08:02.343Z,5.40
2022-10-29T14:10:36.636Z,5.00
2022-10-29T14:13:23.772Z,6.10
2022-10-29T14:16:12.199Z,5.70
2022-10-29T14:18:44.466Z,5.10
2022-10-29T14:21:23.259Z,6.00
2022-10-29T14:24:02.924Z,5.50
2022-10-29T14:26:36.524Z,5.40
2022-10-29T14:29:20.460Z,5.00
2022-10-29T14:32:07.859Z,5.10
2022-10-29T14:34:38.772Z,5.90
2022-10-29T14:37:15.482Z,5.60
2022-10-29T14:39:57.825Z,5.40
2022-10-29T14:42:33.424Z,5.00
2022-10-29T14:45:08.469Z,5.90
2022-10-29T14:47:40.288Z,5.30
2022-10-29T14:50:20.070Z,6.00
2022-10-29T14:52:54.228Z,5.70
2022-10-29T14:55:29.173Z,6.00
2022-10-29T14:58:06.280Z,6.20
2022-10-29T15:00:38.763Z,6.40
2022-10-29T15:03:20.050Z,6.20
2022-10-29T15:05:51.641Z,6.30
2022-10-29T15:08:29.468Z,5.60
2022-10-29T15:11:01.425Z,7.00
2022-10-29T15:13:36.043Z,6.90
2022-10-29T15:16:10.505Z,7.00
2022-10-29T15:18:41.393Z,7.30
2022-10-29T15:21:12.413Z,7.00
2022-10-29T15:23:46.861Z,7.10
2022-10-29T15:26:21.705Z,6.00
2022-10-29T15:28:55.934Z,6.90
2022-10-29T15:31:34.126Z,8.30
2022-10-29T15:34:11.838Z,6.50
2022-10-29T15:36:50.749Z,7.80
2022-10-29T15:39:27.844Z,7.70
2022-10-29T15:42:01.215Z,7.80
2022-10-29T15:44:38.436Z,8.80
2022-10-29T15:47:27.980Z,7.60
2022-10-29T15:49:58.820Z,7.80
2022-10-29T15:52:33.443Z,8.10
2022-10-29T15:55:18.797Z,7.70
2022-10-29T15:57:52.846Z,9.30
2022-10-29T16:00:25.590Z,8.70
2022-10-29T16:02:59.627Z,9.60
2022-10-29T16:05:30.861Z,8.60
2022-10-29T16:08:04.947Z,8.10
2022-10-29T16:10:36.082Z,11.40
2022-10-29T16:13:10.107Z,9.30
2022-10-29T16:15:44.095Z,9.60
2022-10-29T16:18:16.005Z,9.20
2022-10-29T16:20:47.374Z,8.60
2022-10-29T16:23:18.372Z,8.70
2022-10-29T16:25:49.233Z,9.30
2022-10-29T16:28:20.142Z,9.30
2022-10-29T16:30:54.792Z,17.10
2022-10-29T16:33:26.042Z,11.70
2022-10-29T16:35:57.051Z,10.90
2022-10-29T16:38:27.890Z,9.50
2022-10-29T16:40:58.762Z,10.50
2022-10-29T16:43:29.836Z,10.10
2022-10-29T16:46:04.271Z,9.30
2022-10-29T16:48:36.513Z,9.00
2022-10-29T16:51:08.115Z,8.70
2022-10-29T16:53:39.732Z,9.10
2022-10-29T16:56:10.952Z,9.50
2022-10-29T16:58:41.763Z,9.30
2022-10-29T17:01:12.838Z,10.70
2022-10-29T17:03:43.856Z,10.20
2022-10-29T17:06:14.779Z,8.50
2022-10-29T17:08:46.874Z,9.50
2022-10-29T17:11:17.814Z,8.50
2022-10-29T17:13:48.681Z,9.50
2022-10-29T17:16:19.617Z,10.60
2022-10-29T17:18:52.047Z,11.20
2022-10-29T17:21:23.233Z,11.90
2022-10-29T17:23:54.052Z,10.50
2022-10-29T17:26:25.119Z,11.20
2022-10-29T17:28:55.990Z,10.30
2022-10-29T17:31:27.208Z,10.90
2022-10-29T17:33:58.104Z,10.50
2022-10-29T17:36:29.144Z,11.10
2022-10-29T17:38:59.950Z,10.10
2022-10-29T17:41:30.776Z,11.70
2022-10-29T17:44:01.713Z,10.50
2022-10-29T17:46:32.634Z,10.50
2022-10-29T17:49:03.635Z,11.00
2022-10-29T17:51:34.495Z,9.90
2022-10-29T17:54:05.566Z,9.00
2022-10-29T17:56:36.457Z,9.30
2022-10-29T17:59:07.303Z,9.10
2022-10-29T18:01:38.213Z,9.60
2022-10-29T18:04:09.388Z,9.60
2022-10-29T18:06:40.556Z,9.20
2022-10-29T18:09:12.488Z,7.70
2022-10-29T18:11:45.288Z,7.40
2022-10-29T18:14:16.518Z,9.00
2022-10-29T18:16:47.636Z,12.80
2022-10-29T18:19:18.468Z,8.40
2022-10-29T18:21:49.726Z,8.00
2022-10-29T18:24:22.507Z,8.20
2022-10-29T18:26:53.905Z,7.70
2022-10-29T18:29:24.764Z,13.60
2022-10-29T18:31:55.596Z,11.50
2022-10-29T18:34:26.460Z,8.80
2022-10-29T18:36:57.318Z,10.50
2022-10-29T18:39:28.245Z,8.10
2022-10-29T18:41:59.568Z,8.10
2022-10-29T18:44:30.666Z,7.90
2022-10-29T18:47:01.541Z,7.40
2022-10-29T18:49:32.517Z,8.10
2022-10-29T18:52:03.315Z,8.60
2022-10-29T18:54:34.173Z,8.20
2022-10-29T18:57:07.508Z,8.70
2022-10-29T18:59:38.768Z,9.00
2022-10-29T19:02:11.675Z,8.30
2022-10-29T19:04:42.637Z,8.30
2022-10-29T19:07:13.520Z,8.30
2022-10-29T19:09:46.887Z,8.60
2022-10-29T19:12:17.837Z,9.50
2022-10-29T19:14:48.688Z,8.20
2022-10-29T19:17:21.643Z,9.60
2022-10-29T19:19:52.558Z,8.90
2022-10-29T19:22:23.542Z,8.30
2022-10-29T19:24:55.073Z,7.80
2022-10-29T19:27:25.958Z,8.90
2022-10-29T19:30:01.948Z,8.30
2022-10-29T19:32:33.174Z,8.20
2022-10-29T19:35:04.447Z,9.00
2022-10-29T19:37:36.933Z,8.90
2022-10-29T19:40:10.353Z,8.90
2022-10-29T19:42:43.893Z,8.10
2022-10-29T19:45:15.538Z,8.80
2022-10-29T19:47:46.832Z,20.40
2022-10-29T19:50:18.499Z,14.40
2022-10-29T19:52:49.560Z,10.10
2022-10-29T19:55:22.212Z,9.10
2022-10-29T19:57:53.933Z,9.20
2022-10-29T20:00:25.478Z,9.20
2022-10-29T20:02:56.892Z,9.60
2022-10-29T20:05:28.052Z,9.10
2022-10-29T20:08:02.687Z,9.40
2022-10-29T20:10:36.730Z,9.20
2022-10-29T20:13:08.358Z,9.00
2022-10-29T20:15:47.986Z,9.00
2022-10-29T20:18:20.141Z,9.30
2022-10-29T20:20:56.568Z,8.80
2022-10-29T20:23:28.808Z,9.00
2022-10-29T20:26:02.289Z,8.50
2022-10-29T20:28:34.228Z,8.60
2022-10-29T20:31:29.986Z,8.30
2022-10-29T20:34:02.462Z,9.50
2022-10-29T20:36:40.350Z,9.00
2022-10-29T20:39:13.212Z,8.20
2022-10-29T20:41:44.803Z,8.80
2022-10-29T20:44:16.698Z,8.60
2022-10-29T20:46:53.237Z,9.20
2022-10-29T20:49:24.636Z,9.00
2022-10-29T20:51:56.157Z,9.80
2022-10-29T20:54:27.255Z,9.40
2022-10-29T20:56:58.552Z,10.30
2022-10-29T20:59:29.954Z,10.40
2022-10-29T21:02:01.704Z,10.80
2022-10-29T21:04:41.426Z,10.90
2022-10-29T21:07:12.501Z,9.40
2022-10-29T21:09:43.673Z,10.40
2022-10-29T21:12:14.853Z,10.30
2022-10-29T21:14:50.702Z,11.30
2022-10-29T21:17:23.008Z,12.00
2022-10-29T21:19:54.342Z,11.20
2022-10-29T21:22:25.937Z,12.20
2022-10-29T21:24:59.930Z,13.20
2022-10-29T21:27:31.203Z,13.20
2022-10-29T21:30:03.271Z,14.40
2022-10-29T21:32:34.596Z,14.90
2022-10-29T21:35:06.095Z,14.40
2022-10-29T21:37:44.908Z,14.00
2022-10-29T21:40:16.916Z,14.00
2022-10-29T21:42:47.976Z,15.20
2022-10-29T21:45:19.600Z,14.90
2022-10-29T21:47:52.243Z,12.80
2022-10-29T21:50:23.136Z,13.10
2022-10-29T21:52:54.023Z,14.60
2022-10-29T21:55:24.998Z,14.90
2022-10-29T21:57:56.201Z,15.10
2022-10-29T22:00:28.310Z,16.10
2022-10-29T22:03:04.440Z,15.40
2022-10-29T22:05:35.768Z,16.70
2022-10-29T22:08:06.769Z,15.20
2022-10-29T22:10:46.777Z,15.80
2022-10-29T22:13:17.912Z,15.70
2022-10-29T22:15:48.732Z,15.50
2022-10-29T22:18:19.536Z,16.30
2022-10-29T22:20:50.581Z,16.20
2022-10-29T22:23:21.433Z,16.10
2022-10-29T22:25:53.722Z,17.50
2022-10-29T22:28:24.606Z,17.10
2022-10-29T22:31:02.430Z,16.40
2022-10-29T22:33:34.329Z,17.40
2022-10-29T22:36:12.048Z,16.80
2022-10-29T22:38:43.376Z,17.50
2022-10-29T22:41:17.149Z,17.70
2022-10-29T22:43:48.148Z,18.30
2022-10-29T22:46:20.325Z,19.20
2022-10-29T22:48:54.647Z,17.10
2022-10-29T22:51:27.540Z,17.80
2022-10-29T22:53:58.958Z,18.00
2022-10-29T22:56:31.842Z,17.80
2022-10-29T22:59:06.258Z,17.90
2022-10-29T23:01:42.223Z,18.70
2022-10-29T23:04:17.218Z,18.60
2022-10-29T23:06:48.686Z,19.80
2022-10-29T23:09:19.644Z,17.00
2022-10-29T23:11:50.576Z,19.20
2022-10-29T23:14:21.410Z,18.30
2022-10-29T23:16:52.502Z,17.90
2022-10-29T23:19:23.339Z,19.20
2022-10-29T23:21:54.253Z,19.90
2022-10-29T23:24:25.141Z,20.10
2022-10-29T23:26:56.039Z,18.80
2022-10-29T23:29:27.786Z,19.70
2022-10-29T23:31:58.705Z,19.00
2022-10-29T23:34:30.387Z,17.70
2022-10-29T23:37:03.234Z,19.50
2022-10-29T23:39:36.932Z,19.20
2022-10-29T23:42:08.077Z,19.00
2022-10-29T23:44:39.058Z,18.20
2022-10-29T23:47:10.035Z,18.00
2022-10-29T23:49:41.163Z,19.60
2022-10-29T23:52:12.125Z,20.00
2022-10-29T23:54:43.181Z,20.80
2022-10-29T23:57:14.157Z,20.10
2022-10-29T23:59:45.246Z,18.90
